createdAt,value
2023-02-28T08:42:25.996Z,0.40
2023-02-28T08:44:53.235Z,0.70
2023-02-28T08:47:20.548Z,0.70
2023-02-28T08:49:47.832Z,0.52
2023-02-28T08:52:15.090Z,0.50
2023-02-28T08:54:42.311Z,0.60
2023-02-28T08:57:09.597Z,0.60
2023-02-28T08:59:36.801Z,0.80
2023-02-28T09:02:04.156Z,0.47
2023-02-28T09:04:34.528Z,0.50
2023-02-28T09:07:01.858Z,0.45
2023-02-28T09:09:29.085Z,0.50
2023-02-28T09:11:56.312Z,0.40
2023-02-28T09:14:23.566Z,0.30
2023-02-28T09:16:51.081Z,0.70
2023-02-28T09:19:18.314Z,0.38
2023-02-28T09:21:45.505Z,0.22
2023-02-28T09:24:15.338Z,0.40
2023-02-28T09:26:43.407Z,0.32
2023-02-28T09:29:18.951Z,0.30
2023-02-28T09:31:46.488Z,0.40
2023-02-28T09:34:13.851Z,0.30
2023-02-28T09:36:45.671Z,0.30
2023-02-28T09:39:13.805Z,0.32
2023-02-28T09:41:48.318Z,0.40
2023-02-28T09:46:42.942Z,0.22
2023-02-28T09:49:11.092Z,0.30
2023-02-28T09:51:38.340Z,0.22
2023-02-28T09:54:05.654Z,0.13
2023-02-28T09:56:32.843Z,0.28
2023-02-28T09:59:00.107Z,0.30
2023-02-28T10:01:27.844Z,0.43
2023-02-28T10:03:55.472Z,0.10
2023-02-28T10:06:22.829Z,0.40
2023-02-28T10:08:51.584Z,0.40
2023-02-28T10:11:19.406Z,0.20
2023-02-28T10:13:46.627Z,0.60
2023-02-28T10:16:13.805Z,0.30
2023-02-28T10:18:41.085Z,0.45
2023-02-28T10:21:08.302Z,0.38
2023-02-28T10:23:35.989Z,0.40
2023-02-28T10:26:03.503Z,0.50
2023-02-28T10:28:31.898Z,0.55
2023-02-28T10:30:59.637Z,0.50
2023-02-28T10:33:26.967Z,0.30
2023-02-28T10:35:54.380Z,0.20
2023-02-28T10:38:21.773Z,0.20
2023-02-28T10:40:49.179Z,0.20
2023-02-28T10:43:16.386Z,0.22
2023-02-28T10:45:43.676Z,0.10
2023-02-28T10:48:10.838Z,0.17
2023-02-28T10:50:39.093Z,0.10
2023-02-28T10:53:06.328Z,0.20
2023-02-28T10:55:33.571Z,0.10
2023-02-28T10:58:00.755Z,0.30
2023-02-28T11:00:28.812Z,0.30
2023-02-28T11:02:55.999Z,0.10
2023-02-28T11:05:23.232Z,0.20
2023-02-28T11:07:53.408Z,0.17
2023-02-28T11:10:20.938Z,0.20
2023-02-28T11:12:53.117Z,0.20
2023-02-28T11:15:20.936Z,0.30
2023-02-28T11:17:48.296Z,0.10
2023-02-28T11:20:15.549Z,0.13
2023-02-28T11:22:42.842Z,0.10
2023-02-28T11:25:12.642Z,0.20
2023-02-28T11:27:40.472Z,0.20
2023-02-28T11:30:07.740Z,0.20
2023-02-28T11:32:35.055Z,0.25
2023-02-28T11:35:02.246Z,0.10
2023-02-28T11:37:29.492Z,0.10
2023-02-28T11:39:56.746Z,0.20
2023-02-28T11:42:23.980Z,0.10
2023-02-28T11:44:52.713Z,0.30
2023-02-28T11:47:20.062Z,0.30
2023-02-28T11:49:47.255Z,0.20
2023-02-28T11:52:14.512Z,0.13
2023-02-28T11:54:41.762Z,0.20
2023-02-28T11:57:09.059Z,0.10
2023-02-28T11:59:36.238Z,0.17
2023-02-28T12:02:03.555Z,0.10
2023-02-28T12:04:30.775Z,0.40
2023-02-28T12:06:58.762Z,0.10
2023-02-28T12:09:25.953Z,0.10
2023-02-28T12:11:57.031Z,0.20
2023-02-28T12:14:24.679Z,0.28
2023-02-28T12:16:52.200Z,0.10
2023-02-28T12:19:19.528Z,0.20
2023-02-28T12:21:46.713Z,0.22
2023-02-28T12:24:13.974Z,0.10
2023-02-28T12:26:41.263Z,0.20
2023-02-28T12:29:09.019Z,0.20
2023-02-28T12:31:36.403Z,0.30
2023-02-28T12:34:03.631Z,0.20
2023-02-28T12:36:30.861Z,0.10
2023-02-28T12:38:58.127Z,0.20
2023-02-28T12:41:25.354Z,0.20
2023-02-28T12:43:52.647Z,0.30
2023-02-28T12:46:19.944Z,0.20
2023-02-28T12:48:47.226Z,0.20
2023-02-28T12:51:14.726Z,0.30
2023-02-28T12:53:42.023Z,0.20
2023-02-28T12:56:10.380Z,0.30
2023-02-28T12:58:37.747Z,0.20
2023-02-28T13:01:04.995Z,0.10
2023-02-28T13:03:32.286Z,0.20
2023-02-28T13:05:59.548Z,0.40
2023-02-28T13:08:28.512Z,0.30
2023-02-28T13:10:55.839Z,0.10
2023-02-28T13:13:23.057Z,0.10
2023-02-28T13:15:50.290Z,0.10
2023-02-28T13:18:17.494Z,0.10
2023-02-28T13:20:44.728Z,0.10
2023-02-28T13:23:11.944Z,0.10
2023-02-28T13:25:39.241Z,0.20
2023-02-28T13:28:06.420Z,0.10
2023-02-28T13:30:33.727Z,0.10
2023-02-28T13:33:00.910Z,0.20
2023-02-28T13:35:28.193Z,0.30
2023-02-28T13:37:55.415Z,0.10
2023-02-28T13:40:24.410Z,0.20
2023-02-28T13:42:51.757Z,0.10
2023-02-28T13:45:18.921Z,0.10
2023-02-28T13:47:49.329Z,0.10
2023-02-28T13:50:17.857Z,0.10
2023-02-28T13:52:48.985Z,0.05
2023-02-28T13:55:17.236Z,0.10
2023-02-28T13:57:44.390Z,0.00
2023-02-28T14:00:11.631Z,0.00
2023-02-28T14:02:38.806Z,0.10
2023-02-28T14:05:06.094Z,0.10
2023-02-28T14:07:36.266Z,0.00
2023-02-28T14:10:06.494Z,0.10
2023-02-28T14:12:33.694Z,0.10
2023-02-28T14:15:00.921Z,0.10
2023-02-28T14:17:28.290Z,0.10
2023-02-28T14:19:55.526Z,0.10
2023-02-28T14:22:22.744Z,0.20
2023-02-28T14:24:51.104Z,0.10
2023-02-28T14:27:20.800Z,0.30
2023-02-28T14:29:48.058Z,0.10
2023-02-28T14:32:15.320Z,0.10
2023-02-28T14:34:43.048Z,0.10
2023-02-28T14:37:10.364Z,0.15
2023-02-28T14:39:38.037Z,0.10
2023-02-28T14:42:06.027Z,0.10
2023-02-28T14:44:33.251Z,0.10
2023-02-28T14:47:02.595Z,0.10
2023-02-28T14:49:29.826Z,0.13
2023-02-28T14:51:57.050Z,0.10
2023-02-28T14:54:24.956Z,0.20
2023-02-28T14:56:52.414Z,0.10
2023-02-28T14:59:19.618Z,0.15
2023-02-28T15:01:47.087Z,0.20
2023-02-28T15:04:14.269Z,0.30
2023-02-28T15:06:42.541Z,0.10
2023-02-28T15:09:09.789Z,0.10
2023-02-28T15:11:37.043Z,0.20
2023-02-28T15:14:05.125Z,0.20
2023-02-28T15:16:35.575Z,0.20
2023-02-28T15:19:02.852Z,0.20
2023-02-28T15:21:30.252Z,0.10
2023-02-28T15:23:57.612Z,0.20
2023-02-28T15:26:24.886Z,0.20
2023-02-28T15:28:52.363Z,0.28
2023-02-28T15:31:19.643Z,0.10
2023-02-28T15:33:46.873Z,0.20
2023-02-28T15:36:14.191Z,0.00
2023-02-28T15:38:41.471Z,0.10
2023-02-28T15:41:09.229Z,0.10
2023-02-28T15:43:36.521Z,0.20
2023-02-28T15:46:03.724Z,0.10
2023-02-28T15:48:30.977Z,0.00
2023-02-28T15:50:58.306Z,0.20
2023-02-28T15:53:25.611Z,0.00
2023-02-28T15:55:52.964Z,0.00
2023-02-28T15:58:23.186Z,0.10
2023-02-28T16:00:50.491Z,0.13
2023-02-28T16:03:17.757Z,0.20
2023-02-28T16:05:44.957Z,0.00
2023-02-28T16:08:12.153Z,0.10
2023-02-28T16:10:39.436Z,0.10
2023-02-28T16:13:06.830Z,0.10
2023-02-28T16:15:34.077Z,0.10
2023-02-28T16:18:01.248Z,0.10
2023-02-28T16:20:28.497Z,0.00
2023-02-28T16:22:55.919Z,0.10
2023-02-28T16:25:23.277Z,0.10
2023-02-28T16:27:51.142Z,0.10
2023-02-28T16:30:18.461Z,0.20
2023-02-28T16:32:45.727Z,0.08
2023-02-28T16:35:15.084Z,0.10
2023-02-28T16:37:42.378Z,0.10
2023-02-28T16:40:09.698Z,0.08
2023-02-28T16:42:36.889Z,0.20
2023-02-28T16:45:04.235Z,0.10
2023-02-28T16:47:32.902Z,0.10
2023-02-28T16:50:00.198Z,0.57
2023-02-28T16:52:27.419Z,0.20
2023-02-28T16:54:55.558Z,0.10
2023-02-28T16:57:22.774Z,0.20
2023-02-28T16:59:51.787Z,0.10
2023-02-28T17:02:20.392Z,0.10
2023-02-28T17:04:47.835Z,0.10
2023-02-28T17:07:15.131Z,0.05
2023-02-28T17:09:44.976Z,0.13
2023-02-28T17:12:12.912Z,0.17
2023-02-28T17:14:40.170Z,0.10
2023-02-28T17:17:07.410Z,0.00
2023-02-28T17:19:37.074Z,0.10
2023-02-28T17:22:04.376Z,0.10
2023-02-28T17:24:31.784Z,0.25
2023-02-28T17:26:59.123Z,0.10
2023-02-28T17:29:26.392Z,0.20
2023-02-28T17:31:53.909Z,0.10
2023-02-28T17:34:21.336Z,0.20
2023-02-28T17:36:48.800Z,0.10
2023-02-28T17:39:16.046Z,0.10
2023-02-28T17:41:43.415Z,0.13
2023-02-28T17:44:10.614Z,0.03
2023-02-28T17:46:37.839Z,0.00
2023-02-28T17:49:05.176Z,0.20
2023-02-28T17:51:32.499Z,0.00
2023-02-28T17:54:00.810Z,0.13
2023-02-28T17:56:28.717Z,0.10
2023-02-28T17:58:56.223Z,0.15
2023-02-28T18:01:23.896Z,0.20
2023-02-28T18:03:51.178Z,0.00
2023-02-28T18:06:18.893Z,0.10
2023-02-28T18:08:46.131Z,0.10
2023-02-28T18:11:20.505Z,0.00
2023-02-28T18:13:47.807Z,0.10
2023-02-28T18:16:15.017Z,0.20
2023-02-28T18:18:42.453Z,0.20
2023-02-28T18:21:09.816Z,0.10
2023-02-28T18:23:37.029Z,0.38
2023-02-28T18:26:04.176Z,0.10
2023-02-28T18:28:34.845Z,0.10
2023-02-28T18:31:02.292Z,0.25
2023-02-28T18:33:29.617Z,0.10
2023-02-28T18:35:56.917Z,0.10
2023-02-28T18:38:24.157Z,0.17
2023-02-28T18:40:51.471Z,0.30
2023-02-28T18:43:18.677Z,0.17
2023-02-28T18:45:46.035Z,0.30
2023-02-28T18:48:15.191Z,0.25
2023-02-28T18:50:42.461Z,0.00
2023-02-28T18:53:09.687Z,0.28
2023-02-28T18:55:37.372Z,0.10
2023-02-28T18:58:04.569Z,0.20
2023-02-28T19:00:31.930Z,0.10
2023-02-28T19:02:59.311Z,0.30
2023-02-28T19:05:28.169Z,0.10
2023-02-28T19:07:55.774Z,0.08
2023-02-28T19:10:23.115Z,0.10
2023-02-28T19:12:50.299Z,0.20
2023-02-28T19:15:17.564Z,0.28
2023-02-28T19:17:46.450Z,0.20
2023-02-28T19:20:13.654Z,0.10
2023-02-28T19:22:41.190Z,0.20
2023-02-28T19:25:08.426Z,0.10
2023-02-28T19:27:35.672Z,0.10
2023-02-28T19:30:04.308Z,0.30
2023-02-28T19:32:31.665Z,0.22
2023-02-28T19:34:58.947Z,0.10
2023-02-28T19:37:27.195Z,0.30
2023-02-28T19:39:57.058Z,0.20
2023-02-28T19:42:24.834Z,0.20
2023-02-28T19:44:51.999Z,0.22
2023-02-28T19:47:19.355Z,0.17
2023-02-28T19:49:48.387Z,0.20
2023-02-28T19:52:15.765Z,0.20
2023-02-28T19:54:43.035Z,0.20
2023-02-28T19:57:10.211Z,0.40
2023-02-28T19:59:39.848Z,0.20
2023-02-28T20:02:08.164Z,0.20
2023-02-28T20:04:35.369Z,0.20
2023-02-28T20:07:02.596Z,0.30
2023-02-28T20:09:29.846Z,0.20
2023-02-28T20:11:59.513Z,0.35
2023-02-28T20:14:26.904Z,0.30
2023-02-28T20:16:55.929Z,0.32
2023-02-28T20:19:24.410Z,0.20
2023-02-28T20:21:51.566Z,0.40
2023-02-28T20:24:18.810Z,0.50
2023-02-28T20:26:46.094Z,0.73
2023-02-28T20:29:13.857Z,0.60
2023-02-28T20:31:41.151Z,1.00
2023-02-28T20:34:08.456Z,0.90
2023-02-28T20:36:35.864Z,0.88
2023-02-28T20:39:03.117Z,1.10
